Time;durP1;ratioP1;P1;durP2;ratioP2;P2;SDS_P1;SDS_P2;PMS_P1;PMS_P2;Temp;Humidity;BMP_temperature;BMP_pressure;BME280_temperature;BME280_humidity;BME280_pressure;Samples;Min_cycle;Max_cycle;Signal;HPM_P1;HPM_P2
2024/01/06 00:02:06;;;;;;;14.35;7.32;;;;;;;;;;5072895;28;20039;-67
2024/01/06 00:04:32;;;;;;;21.58;10.27;;;;;;;;;;5073156;28;20024;-68
2024/01/06 00:06:57;;;;;;;28.60;12.98;;;;;;;;;;5073043;28;20130;-67
2024/01/06 00:09:23;;;;;;;26.02;11.80;;;;;;;;;;5059297;28;20094;-67
2024/01/06 00:11:48;;;;;;;24.25;11.27;;;;;;;;;;5053067;28;20112;-67
2024/01/06 00:14:14;;;;;;;21.75;10.55;;;;;;;;;;5053025;28;20025;-67
2024/01/06 00:16:39;;;;;;;22.38;10.80;;;;;;;;;;5052835;28;20037;-67
2024/01/06 00:19:05;;;;;;;28.25;15.57;;;;;;;;;;5052824;28;20111;-67
2024/01/06 00:21:30;;;;;;;22.13;11.45;;;;;;;;;;5052794;28;20526;-67
2024/01/06 00:23:56;;;;;;;18.73;9.05;;;;;;;;;;5052909;28;20534;-67
2024/01/06 00:26:21;;;;;;;11.05;7.03;;;;;;;;;;5052767;28;20036;-67
2024/01/06 00:28:49;;;;;;;20.35;11.23;;;;;;;;;;5052779;28;20025;-66
2024/01/06 00:31:16;;;;;;;21.02;10.75;;;;;;;;;;5052594;28;20033;-67
2024/01/06 00:33:42;;;;;;;24.08;9.77;;;;;;;;;;5052491;28;20421;-67
2024/01/06 00:36:08;;;;;;;8.15;3.97;;;;;;;;;;5052691;28;20051;-66
2024/01/06 00:38:35;;;;;;;23.15;9.75;;;;;;;;;;5052637;28;20083;-66
2024/01/06 00:41:00;;;;;;;19.08;9.00;;;;;;;;;;5052597;28;20447;-67
2024/01/06 00:43:26;;;;;;;25.98;12.25;;;;;;;;;;5052252;28;20029;-67
2024/01/06 00:45:51;;;;;;;25.75;12.43;;;;;;;;;;5052326;28;20402;-67
2024/01/06 00:48:16;;;;;;;24.08;12.38;;;;;;;;;;5052273;28;20017;-67
2024/01/06 00:50:42;;;;;;;22.00;10.38;;;;;;;;;;5055280;28;20031;-67
2024/01/06 00:53:07;;;;;;;18.20;10.20;;;;;;;;;;5072432;28;20024;-67
2024/01/06 00:55:33;;;;;;;20.98;10.48;;;;;;;;;;5071994;28;20410;-67
2024/01/06 00:58:00;;;;;;;23.40;10.63;;;;;;;;;;5072146;28;20051;-67
2024/01/06 01:00:27;;;;;;;22.95;10.55;;;;;;;;;;5072349;28;20802;-67
2024/01/06 01:02:52;;;;;;;20.73;10.32;;;;;;;;;;5072319;28;20131;-67
2024/01/06 01:05:18;;;;;;;19.77;9.50;;;;;;;;;;5072230;28;20025;-67
2024/01/06 01:07:44;;;;;;;21.85;10.57;;;;;;;;;;5072441;28;20444;-66
2024/01/06 01:10:09;;;;;;;20.33;10.73;;;;;;;;;;5052233;28;20025;-67
2024/01/06 01:12:36;;;;;;;19.73;10.05;;;;;;;;;;5052146;28;20036;-67
2024/01/06 01:15:01;;;;;;;21.48;9.90;;;;;;;;;;5052369;28;20025;-66
2024/01/06 01:17:26;;;;;;;21.75;10.45;;;;;;;;;;5052033;28;20029;-66
2024/01/06 01:19:52;;;;;;;21.30;11.90;;;;;;;;;;5052287;28;20025;-67
2024/01/06 01:22:17;;;;;;;23.30;10.35;;;;;;;;;;5052067;28;20491;-67
2024/01/06 01:24:43;;;;;;;19.38;9.40;;;;;;;;;;5052183;28;20029;-67
2024/01/06 01:27:08;;;;;;;30.58;10.23;;;;;;;;;;5051888;28;20036;-66
2024/01/06 01:29:34;;;;;;;20.85;11.13;;;;;;;;;;5052076;28;20029;-67
2024/01/06 01:32:00;;;;;;;18.13;9.65;;;;;;;;;;5052105;28;20024;-67
2024/01/06 01:34:25;;;;;;;13.55;6.53;;;;;;;;;;5051945;28;20130;-67
2024/01/06 01:36:50;;;;;;;18.90;9.85;;;;;;;;;;5051889;28;20103;-67
2024/01/06 01:39:17;;;;;;;15.30;8.00;;;;;;;;;;5051957;28;20025;-67
2024/01/06 01:41:42;;;;;;;21.15;11.50;;;;;;;;;;5051784;28;20082;-67
2024/01/06 01:44:07;;;;;;;20.70;8.77;;;;;;;;;;5052012;28;20421;-67
2024/01/06 01:46:33;;;;;;;15.45;8.82;;;;;;;;;;5051949;28;20421;-67
2024/01/06 01:49:00;;;;;;;20.45;9.93;;;;;;;;;;5051903;28;20033;-67
2024/01/06 01:51:33;;;;;;;21.65;8.65;;;;;;;;;;5060558;28;20039;-67
2024/01/06 01:54:03;;;;;;;21.17;10.52;;;;;;;;;;5071858;28;20037;-67
2024/01/06 01:56:33;;;;;;;18.38;8.07;;;;;;;;;;5071476;28;20048;-68
2024/01/06 01:59:06;;;;;;;13.73;7.47;;;;;;;;;;5072421;28;20032;-67
2024/01/06 02:01:31;;;;;;;17.40;9.48;;;;;;;;;;5075446;28;20036;-67
2024/01/06 02:03:57;;;;;;;18.02;10.18;;;;;;;;;;5075490;28;20034;-67
2024/01/06 02:06:23;;;;;;;20.23;8.77;;;;;;;;;;5075626;28;20102;-67
2024/01/06 02:08:48;;;;;;;14.30;6.43;;;;;;;;;;5066701;28;20028;-67
2024/01/06 02:11:14;;;;;;;16.63;7.10;;;;;;;;;;5055173;28;20374;-67
2024/01/06 02:13:39;;;;;;;21.10;11.00;;;;;;;;;;5053982;28;20027;-67
2024/01/06 02:16:06;;;;;;;15.93;8.50;;;;;;;;;;5055332;28;20025;-67
2024/01/06 02:18:32;;;;;;;18.35;8.70;;;;;;;;;;5055493;28;20057;-67
2024/01/06 02:21:01;;;;;;;17.05;7.70;;;;;;;;;;5055298;28;20029;-67
2024/01/06 02:23:29;;;;;;;18.33;8.98;;;;;;;;;;5055084;28;20429;-67
2024/01/06 02:25:55;;;;;;;14.10;7.88;;;;;;;;;;5055050;28;20074;-67
2024/01/06 02:28:21;;;;;;;13.27;6.22;;;;;;;;;;5055236;28;20029;-67
2024/01/06 02:30:47;;;;;;;15.73;8.15;;;;;;;;;;5055213;28;20064;-67
2024/01/06 02:33:12;;;;;;;19.25;9.27;;;;;;;;;;5054935;28;20024;-67
2024/01/06 02:35:39;;;;;;;11.65;5.97;;;;;;;;;;5054930;28;20390;-67
2024/01/06 02:38:05;;;;;;;22.73;8.27;;;;;;;;;;5054976;28;20082;-66
2024/01/06 02:40:31;;;;;;;19.58;10.68;;;;;;;;;;5054710;28;20119;-67
2024/01/06 02:42:57;;;;;;;16.70;9.50;;;;;;;;;;5053509;28;20331;-66
2024/01/06 02:45:22;;;;;;;18.33;9.07;;;;;;;;;;5054624;28;20375;-66
2024/01/06 02:47:47;;;;;;;19.70;9.07;;;;;;;;;;5054556;28;20029;-67
2024/01/06 02:50:13;;;;;;;20.95;9.32;;;;;;;;;;5054640;28;20029;-67
2024/01/06 02:52:38;;;;;;;20.38;9.40;;;;;;;;;;5073375;28;20024;-67
2024/01/06 02:55:04;;;;;;;21.35;11.48;;;;;;;;;;5074167;28;20044;-67
2024/01/06 02:57:30;;;;;;;21.75;10.15;;;;;;;;;;5074408;28;20445;-67
2024/01/06 02:59:56;;;;;;;16.95;8.52;;;;;;;;;;5074675;28;20354;-67
2024/01/06 03:02:22;;;;;;;12.57;6.70;;;;;;;;;;5074436;28;20016;-67
2024/01/06 03:04:47;;;;;;;18.88;8.73;;;;;;;;;;5074545;28;20028;-67
2024/01/06 03:07:13;;;;;;;16.25;7.75;;;;;;;;;;5074440;28;20020;-67
2024/01/06 03:09:38;;;;;;;17.75;9.27;;;;;;;;;;5058005;28;20025;-68
2024/01/06 03:12:08;;;;;;;21.95;11.45;;;;;;;;;;5054276;28;20348;-67
2024/01/06 03:14:36;;;;;;;20.67;10.05;;;;;;;;;;5054191;28;20032;-67
2024/01/06 03:17:02;;;;;;;20.70;10.38;;;;;;;;;;5054050;28;20029;-67
2024/01/06 03:19:28;;;;;;;22.73;11.95;;;;;;;;;;5054006;28;20440;-67
2024/01/06 03:21:53;;;;;;;22.13;11.23;;;;;;;;;;5054048;28;20064;-67
2024/01/06 03:24:22;;;;;;;20.65;9.15;;;;;;;;;;5053698;28;20025;-67
2024/01/06 03:26:48;;;;;;;16.90;8.57;;;;;;;;;;5053991;28;20060;-67
2024/01/06 03:29:13;;;;;;;16.38;7.82;;;;;;;;;;5053891;28;20029;-67
2024/01/06 03:31:42;;;;;;;23.75;11.82;;;;;;;;;;5053716;28;20470;-67
2024/01/06 03:34:08;;;;;;;24.58;9.95;;;;;;;;;;5053666;28;20034;-67
2024/01/06 03:36:34;;;;;;;12.57;6.85;;;;;;;;;;5053779;28;20494;-67
2024/01/06 03:38:59;;;;;;;20.00;10.52;;;;;;;;;;5053381;28;20056;-67
2024/01/06 03:41:25;;;;;;;22.70;9.85;;;;;;;;;;5053471;28;20031;-67
2024/01/06 03:43:50;;;;;;;21.48;10.77;;;;;;;;;;5052266;28;20048;-68
2024/01/06 03:46:15;;;;;;;16.58;8.45;;;;;;;;;;5053380;28;20040;-67
2024/01/06 03:48:41;;;;;;;16.92;7.70;;;;;;;;;;5053386;28;20090;-67
2024/01/06 03:51:07;;;;;;;13.50;6.60;;;;;;;;;;5059068;28;20033;-68
2024/01/06 03:53:32;;;;;;;22.30;7.05;;;;;;;;;;5072823;28;20029;-67
2024/01/06 03:55:58;;;;;;;17.92;9.15;;;;;;;;;;5073226;28;20048;-67
2024/01/06 03:58:23;;;;;;;18.88;9.13;;;;;;;;;;5073462;28;20025;-67
2024/01/06 04:00:48;;;;;;;19.10;9.82;;;;;;;;;;5072034;28;20466;-67
2024/01/06 04:03:14;;;;;;;16.58;8.05;;;;;;;;;;5073040;28;20029;-67
2024/01/06 04:05:39;;;;;;;15.30;8.10;;;;;;;;;;5073135;28;20028;-68
2024/01/06 04:08:05;;;;;;;15.60;6.55;;;;;;;;;;5070113;28;20408;-68
2024/01/06 04:10:30;;;;;;;10.93;5.90;;;;;;;;;;5053009;28;20044;-67
2024/01/06 04:12:56;;;;;;;15.88;8.65;;;;;;;;;;5053029;28;20025;-67
2024/01/06 04:15:21;;;;;;;19.42;8.43;;;;;;;;;;5053123;28;20041;-67
2024/01/06 04:17:48;;;;;;;12.45;7.20;;;;;;;;;;5052893;28;20029;-67
2024/01/06 04:20:14;;;;;;;8.25;4.68;;;;;;;;;;5052865;28;20096;-67
2024/01/06 04:22:39;;;;;;;14.80;6.22;;;;;;;;;;5052078;28;20099;-66
2024/01/06 04:25:05;;;;;;;18.17;7.82;;;;;;;;;;5052802;28;20024;-66
2024/01/06 04:27:31;;;;;;;13.50;6.68;;;;;;;;;;5052764;28;20090;-67
2024/01/06 04:29:56;;;;;;;12.13;6.25;;;;;;;;;;5052809;28;20086;-67
2024/01/06 04:32:22;;;;;;;12.63;7.10;;;;;;;;;;5052573;28;20025;-67
2024/01/06 04:34:47;;;;;;;15.23;8.73;;;;;;;;;;5052740;28;20016;-66
2024/01/06 04:37:13;;;;;;;18.10;8.23;;;;;;;;;;5052329;28;20470;-67
2024/01/06 04:39:38;;;;;;;13.82;6.13;;;;;;;;;;5052574;28;20028;-67
2024/01/06 04:42:04;;;;;;;12.07;6.88;;;;;;;;;;5052621;28;20033;-68
2024/01/06 04:44:30;;;;;;;15.20;7.88;;;;;;;;;;5052601;28;20025;-68
2024/01/06 04:46:55;;;;;;;11.27;6.55;;;;;;;;;;5052349;28;20067;-67
2024/01/06 04:49:21;;;;;;;15.88;6.32;;;;;;;;;;5052513;28;20021;-67
2024/01/06 04:51:48;;;;;;;11.55;6.82;;;;;;;;;;5063812;28;20025;-67
2024/01/06 04:54:13;;;;;;;12.95;6.75;;;;;;;;;;5072648;28;20056;-68
2024/01/06 04:56:39;;;;;;;13.73;6.90;;;;;;;;;;5072344;28;20071;-67
2024/01/06 04:59:05;;;;;;;12.07;7.05;;;;;;;;;;5072486;28;20099;-67
2024/01/06 05:01:30;;;;;;;12.90;7.25;;;;;;;;;;5072335;28;20036;-67
2024/01/06 05:03:56;;;;;;;13.10;7.57;;;;;;;;;;5072562;28;20086;-67
2024/01/06 05:06:23;;;;;;;12.85;7.05;;;;;;;;;;5072234;28;20425;-67
2024/01/06 05:08:48;;;;;;;13.25;7.20;;;;;;;;;;5063557;28;20466;-68
2024/01/06 05:11:13;;;;;;;11.27;6.50;;;;;;;;;;5052088;28;20111;-67
2024/01/06 05:13:39;;;;;;;14.00;7.20;;;;;;;;;;5052319;28;20021;-68
2024/01/06 05:16:04;;;;;;;10.52;5.55;;;;;;;;;;5052258;28;20028;-67
2024/01/06 05:18:30;;;;;;;21.20;11.73;;;;;;;;;;5052286;28;20056;-67
2024/01/06 05:20:56;;;;;;;17.17;8.63;;;;;;;;;;5051940;28;20036;-67
2024/01/06 05:23:21;;;;;;;26.88;12.20;;;;;;;;;;5052184;28;20021;-67
2024/01/06 05:25:47;;;;;;;22.63;11.85;;;;;;;;;;5052309;28;20379;-67
2024/01/06 05:28:12;;;;;;;25.23;12.10;;;;;;;;;;5052323;28;20327;-68
2024/01/06 05:30:38;;;;;;;22.33;11.13;;;;;;;;;;5052475;28;20379;-67
2024/01/06 05:33:03;;;;;;;15.48;7.20;;;;;;;;;;5052659;28;20474;-67
2024/01/06 05:35:29;;;;;;;17.58;9.20;;;;;;;;;;5055748;28;20035;-68
2024/01/06 05:37:54;;;;;;;18.48;8.90;;;;;;;;;;5056050;28;20037;-67
2024/01/06 05:40:20;;;;;;;12.93;6.80;;;;;;;;;;5055854;28;20382;-67
2024/01/06 05:42:45;;;;;;;19.90;8.43;;;;;;;;;;5055871;28;20135;-67
2024/01/06 05:45:12;;;;;;;16.73;8.77;;;;;;;;;;5055738;28;20079;-67
2024/01/06 05:47:38;;;;;;;15.40;7.35;;;;;;;;;;5055624;28;20033;-67
2024/01/06 05:50:04;;;;;;;17.77;9.05;;;;;;;;;;5055670;28;20027;-68
2024/01/06 05:52:30;;;;;;;16.27;8.55;;;;;;;;;;5073044;28;20028;-68
2024/01/06 05:54:55;;;;;;;16.73;9.13;;;;;;;;;;5075511;28;20028;-67
2024/01/06 05:57:20;;;;;;;13.80;7.80;;;;;;;;;;5075619;28;20470;-68
2024/01/06 05:59:46;;;;;;;16.20;9.43;;;;;;;;;;5075643;28;20138;-68
2024/01/06 06:02:11;;;;;;;15.73;7.65;;;;;;;;;;5075479;28;20247;-68
2024/01/06 06:04:37;;;;;;;24.92;12.38;;;;;;;;;;5075275;28;20088;-68
2024/01/06 06:07:02;;;;;;;15.60;7.18;;;;;;;;;;5075496;28;20079;-68
2024/01/06 06:09:28;;;;;;;14.77;8.20;;;;;;;;;;5061088;28;20518;-67
2024/01/06 06:11:54;;;;;;;16.35;8.73;;;;;;;;;;5055497;28;20375;-68
2024/01/06 06:14:19;;;;;;;17.42;8.82;;;;;;;;;;5055360;28;20427;-68
2024/01/06 06:16:46;;;;;;;15.45;7.28;;;;;;;;;;5055248;28;20025;-68
2024/01/06 06:19:12;;;;;;;20.67;10.38;;;;;;;;;;5055128;28;20033;-67
2024/01/06 06:21:37;;;;;;;13.98;7.72;;;;;;;;;;5055264;28;20107;-67
2024/01/06 06:24:03;;;;;;;13.13;6.90;;;;;;;;;;5055265;28;20079;-68
2024/01/06 06:26:28;;;;;;;15.65;7.72;;;;;;;;;;5055188;28;20028;-67
2024/01/06 06:28:54;;;;;;;13.77;6.70;;;;;;;;;;5054880;28;20036;-67
2024/01/06 06:31:19;;;;;;;18.65;8.88;;;;;;;;;;5054815;28;20585;-68
2024/01/06 06:33:45;;;;;;;17.48;9.05;;;;;;;;;;5054802;28;20425;-68
2024/01/06 06:36:10;;;;;;;11.43;5.53;;;;;;;;;;5054787;28;20123;-68
2024/01/06 06:38:36;;;;;;;19.67;9.52;;;;;;;;;;5054888;28;20039;-68
2024/01/06 06:41:01;;;;;;;18.73;9.05;;;;;;;;;;5054702;28;20409;-67
2024/01/06 06:43:27;;;;;;;15.20;8.23;;;;;;;;;;5054643;28;20029;-67
2024/01/06 06:45:53;;;;;;;18.25;8.13;;;;;;;;;;5053542;28;20025;-67
2024/01/06 06:48:18;;;;;;;17.00;7.88;;;;;;;;;;5054567;28;20024;-67
2024/01/06 06:50:43;;;;;;;12.43;6.85;;;;;;;;;;5057362;28;20013;-67
2024/01/06 06:53:09;;;;;;;26.20;11.77;;;;;;;;;;5074568;28;20488;-67
2024/01/06 06:55:37;;;;;;;23.70;10.82;;;;;;;;;;5074299;28;20509;-68
2024/01/06 06:58:03;;;;;;;17.42;7.95;;;;;;;;;;5074414;28;20054;-67
2024/01/06 07:00:28;;;;;;;15.52;8.55;;;;;;;;;;5074282;28;20021;-67
2024/01/06 07:02:54;;;;;;;18.17;8.68;;;;;;;;;;5074297;28;20024;-67
2024/01/06 07:05:19;;;;;;;18.15;9.77;;;;;;;;;;5074459;28;20462;-67
2024/01/06 07:07:46;;;;;;;16.50;7.70;;;;;;;;;;5074302;28;20051;-66
2024/01/06 07:10:12;;;;;;;18.60;8.52;;;;;;;;;;5034429;28;20025;-66
2024/01/06 07:12:37;;;;;;;16.67;7.43;;;;;;;;;;5034203;28;20029;-68
2024/01/06 07:15:03;;;;;;;14.07;7.25;;;;;;;;;;5034190;28;20033;-68
2024/01/06 07:17:28;;;;;;;16.60;6.50;;;;;;;;;;5034148;28;20368;-68
2024/01/06 07:19:54;;;;;;;15.55;8.25;;;;;;;;;;5034272;28;20109;-67
2024/01/06 07:22:20;;;;;;;11.30;5.78;;;;;;;;;;5034035;28;20096;-68
2024/01/06 07:24:46;;;;;;;13.75;7.90;;;;;;;;;;5033960;28;20053;-68
2024/01/06 07:27:11;;;;;;;12.70;6.38;;;;;;;;;;5034073;28;20022;-68
2024/01/06 07:29:38;;;;;;;13.20;5.93;;;;;;;;;;5033718;28;20097;-68
2024/01/06 07:32:06;;;;;;;14.90;8.45;;;;;;;;;;5033897;28;20463;-68
2024/01/06 07:34:31;;;;;;;13.35;6.57;;;;;;;;;;5052922;28;20404;-67
2024/01/06 07:36:57;;;;;;;13.98;7.45;;;;;;;;;;5053695;28;20090;-68
2024/01/06 07:39:24;;;;;;;16.83;8.00;;;;;;;;;;5053573;28;20131;-68
2024/01/06 07:41:49;;;;;;;15.13;7.35;;;;;;;;;;5053575;28;20459;-67
2024/01/06 07:44:16;;;;;;;15.00;7.10;;;;;;;;;;5053266;28;20040;-68
2024/01/06 07:46:41;;;;;;;15.80;7.68;;;;;;;;;;5053484;28;20032;-68
2024/01/06 07:49:07;;;;;;;16.52;7.45;;;;;;;;;;5053372;28;20382;-68
2024/01/06 07:51:34;;;;;;;17.85;9.18;;;;;;;;;;5062781;28;20071;-67
2024/01/06 07:54:00;;;;;;;12.45;6.60;;;;;;;;;;5073421;28;20071;-68
2024/01/06 07:56:26;;;;;;;14.95;7.70;;;;;;;;;;5072279;28;20428;-68
2024/01/06 07:58:52;;;;;;;17.08;9.00;;;;;;;;;;5072855;28;20020;-68
2024/01/06 08:01:18;;;;;;;11.65;6.40;;;;;;;;;;5073101;28;20389;-68
2024/01/06 08:03:43;;;;;;;10.95;5.63;;;;;;;;;;5073272;28;20025;-68
2024/01/06 08:06:09;;;;;;;15.93;7.68;;;;;;;;;;5073242;28;20072;-68
2024/01/06 08:08:35;;;;;;;14.80;6.68;;;;;;;;;;5065024;28;20029;-68
2024/01/06 08:11:01;;;;;;;14.82;7.63;;;;;;;;;;5053054;28;20127;-68
2024/01/06 08:13:26;;;;;;;14.65;7.70;;;;;;;;;;5052538;28;20020;-67
2024/01/06 08:15:51;;;;;;;10.80;5.90;;;;;;;;;;5053112;28;20259;-68
2024/01/06 08:18:18;;;;;;;15.65;6.10;;;;;;;;;;5053028;28;20025;-68
2024/01/06 08:20:43;;;;;;;10.32;5.25;;;;;;;;;;5051861;28;20078;-68
2024/01/06 08:23:09;;;;;;;11.05;5.63;;;;;;;;;;5052873;28;20518;-68
2024/01/06 08:25:34;;;;;;;15.70;7.97;;;;;;;;;;5052846;28;20068;-68
2024/01/06 08:28:00;;;;;;;15.57;6.95;;;;;;;;;;5052616;28;20027;-68
2024/01/06 08:30:25;;;;;;;16.63;8.43;;;;;;;;;;5052894;28;20116;-68
2024/01/06 08:32:52;;;;;;;14.60;7.38;;;;;;;;;;5052661;28;20025;-68
2024/01/06 08:35:17;;;;;;;8.93;4.45;;;;;;;;;;5052627;28;20025;-68
2024/01/06 08:37:44;;;;;;;12.23;7.03;;;;;;;;;;5052524;28;20044;-68
2024/01/06 08:40:09;;;;;;;9.90;5.05;;;;;;;;;;5052714;28;20056;-67
2024/01/06 08:42:35;;;;;;;10.48;6.07;;;;;;;;;;5051021;28;20044;-68
2024/01/06 08:45:00;;;;;;;14.82;7.13;;;;;;;;;;5052395;28;20119;-67
2024/01/06 08:47:26;;;;;;;12.80;7.20;;;;;;;;;;5052239;28;20025;-67
2024/01/06 08:49:51;;;;;;;14.85;6.55;;;;;;;;;;5052285;28;20066;-67
2024/01/06 08:52:16;;;;;;;13.75;6.03;;;;;;;;;;5068040;28;20111;-67
2024/01/06 08:54:42;;;;;;;13.93;7.25;;;;;;;;;;5072520;28;20124;-67
2024/01/06 08:57:07;;;;;;;14.10;7.57;;;;;;;;;;5072334;28;20052;-69
2024/01/06 08:59:33;;;;;;;14.38;7.05;;;;;;;;;;5072364;28;20025;-67
2024/01/06 09:01:58;;;;;;;9.88;5.43;;;;;;;;;;5072299;28;20035;-67
2024/01/06 09:04:24;;;;;;;15.18;8.77;;;;;;;;;;5072209;28;20418;-67
2024/01/06 09:06:50;;;;;;;13.23;6.97;;;;;;;;;;5072444;28;20036;-67
2024/01/06 09:09:16;;;;;;;12.95;7.72;;;;;;;;;;5059484;28;20120;-68
2024/01/06 09:11:46;;;;;;;10.50;4.47;;;;;;;;;;5051960;28;20028;-68
2024/01/06 09:14:11;;;;;;;14.52;7.55;;;;;;;;;;5052244;28;20454;-68
2024/01/06 09:16:37;;;;;;;8.50;5.22;;;;;;;;;;5052226;28;20029;-67
2024/01/06 09:19:02;;;;;;;17.33;8.80;;;;;;;;;;5052251;28;20386;-67
2024/01/06 09:21:28;;;;;;;15.55;6.95;;;;;;;;;;5052038;28;20477;-67
2024/01/06 09:23:53;;;;;;;11.95;7.55;;;;;;;;;;5052030;28;20360;-67
2024/01/06 09:26:19;;;;;;;15.38;8.45;;;;;;;;;;5051830;28;20036;-67
2024/01/06 09:28:44;;;;;;;14.50;7.43;;;;;;;;;;5052173;28;20104;-67
2024/01/06 09:31:09;;;;;;;20.30;9.73;;;;;;;;;;5052047;28;20025;-66
2024/01/06 09:33:35;;;;;;;17.52;8.18;;;;;;;;;;5051810;28;20451;-66
2024/01/06 09:36:01;;;;;;;8.95;5.20;;;;;;;;;;5052005;28;20064;-67
2024/01/06 09:38:27;;;;;;;13.50;5.90;;;;;;;;;;5051841;28;20029;-67
2024/01/06 09:40:53;;;;;;;13.63;6.47;;;;;;;;;;5051643;28;20028;-67
2024/01/06 09:43:19;;;;;;;18.13;7.60;;;;;;;;;;5051677;28;20041;-67
2024/01/06 09:45:53;;;;;;;14.82;7.10;;;;;;;;;;5051329;28;20021;-67
2024/01/06 09:48:21;;;;;;;16.65;6.35;;;;;;;;;;5051719;28;20107;-68
2024/01/06 09:50:49;;;;;;;10.27;5.13;;;;;;;;;;5053416;28;20024;-67
2024/01/06 09:53:15;;;;;;;13.38;7.78;;;;;;;;;;5071642;28;20037;-67
2024/01/06 09:55:40;;;;;;;15.18;9.45;;;;;;;;;;5071229;28;20261;-67
2024/01/06 09:58:06;;;;;;;16.42;9.13;;;;;;;;;;5071599;28;20453;-67
2024/01/06 10:00:32;;;;;;;18.55;9.52;;;;;;;;;;5071939;28;20103;-67
2024/01/06 10:02:57;;;;;;;13.85;6.50;;;;;;;;;;5071861;28;20108;-67
2024/01/06 10:05:23;;;;;;;17.13;7.65;;;;;;;;;;5071779;28;20025;-67
2024/01/06 10:07:49;;;;;;;16.38;7.28;;;;;;;;;;5071321;28;20020;-67
2024/01/06 10:10:15;;;;;;;12.20;6.05;;;;;;;;;;5051567;28;20025;-67
2024/01/06 10:12:42;;;;;;;15.68;8.25;;;;;;;;;;5051721;28;20037;-67
2024/01/06 10:15:10;;;;;;;12.57;6.20;;;;;;;;;;5051916;28;20033;-66
2024/01/06 10:17:39;;;;;;;14.93;6.68;;;;;;;;;;5051520;28;20428;-67
2024/01/06 10:20:09;;;;;;;14.00;7.10;;;;;;;;;;5052473;28;20029;-67
2024/01/06 10:22:36;;;;;;;24.13;9.93;;;;;;;;;;5055248;28;20037;-67
2024/01/06 10:25:02;;;;;;;22.15;8.93;;;;;;;;;;5054987;28;20064;-68
2024/01/06 10:27:28;;;;;;;14.30;6.95;;;;;;;;;;5055120;28;20043;-66
2024/01/06 10:29:53;;;;;;;13.82;5.53;;;;;;;;;;5055167;28;20118;-66
2024/01/06 10:32:19;;;;;;;12.65;6.80;;;;;;;;;;5054781;28;20107;-67
2024/01/06 10:34:45;;;;;;;33.95;11.93;;;;;;;;;;5054899;28;20043;-67
2024/01/06 10:37:10;;;;;;;38.70;12.57;;;;;;;;;;5056499;28;20115;-67
2024/01/06 10:39:36;;;;;;;34.35;11.43;;;;;;;;;;5057769;28;20031;-66
2024/01/06 10:42:03;;;;;;;36.22;10.55;;;;;;;;;;5056609;28;20024;-66
2024/01/06 10:44:32;;;;;;;21.27;7.03;;;;;;;;;;5054057;28;20476;-67
2024/01/06 10:46:59;;;;;;;17.30;7.68;;;;;;;;;;5056483;28;20028;-67
2024/01/06 10:49:26;;;;;;;17.17;6.18;;;;;;;;;;5069850;28;21413;-67
2024/01/06 10:51:53;;;;;;;15.02;6.32;;;;;;;;;;5059193;28;20017;-67
2024/01/06 10:54:19;;;;;;;18.20;6.40;;;;;;;;;;5063974;28;20039;-67
2024/01/06 10:56:46;;;;;;;11.88;5.38;;;;;;;;;;5068094;28;20044;-68
2024/01/06 10:59:12;;;;;;;6.93;3.45;;;;;;;;;;5057819;28;20040;-68
2024/01/06 11:01:38;;;;;;;9.30;5.38;;;;;;;;;;5069788;28;20059;-68
2024/01/06 11:04:04;;;;;;;16.15;7.32;;;;;;;;;;5053992;28;20117;-68
2024/01/06 11:06:32;;;;;;;10.60;4.95;;;;;;;;;;5054212;28;20479;-69
2024/01/06 11:09:14;;;;;;;10.57;5.45;;;;;;;;;;5053945;28;20032;-68
2024/01/06 11:11:40;;;;;;;17.52;6.32;;;;;;;;;;5053401;28;20048;-69
2024/01/06 11:14:25;;;;;;;13.77;7.28;;;;;;;;;;5052469;28;20056;-67
2024/01/06 11:16:51;;;;;;;15.45;7.82;;;;;;;;;;5052790;28;20037;-67
2024/01/06 11:19:35;;;;;;;17.67;8.38;;;;;;;;;;5052916;28;20425;-66
2024/01/06 11:22:31;;;;;;;21.10;8.65;;;;;;;;;;5052625;28;20134;-67
2024/01/06 11:25:04;;;;;;;14.65;6.43;;;;;;;;;;5053059;28;20025;-67
2024/01/06 11:27:31;;;;;;;13.75;8.77;;;;;;;;;;5053912;28;20029;-67
2024/01/06 11:29:58;;;;;;;16.95;9.73;;;;;;;;;;5054222;28;20017;-67
2024/01/06 11:32:53;;;;;;;25.15;11.23;;;;;;;;;;5053749;28;20075;-67
2024/01/06 11:35:20;;;;;;;17.02;7.45;;;;;;;;;;5053595;28;20044;-67
2024/01/06 11:37:45;;;;;;;14.15;7.00;;;;;;;;;;5053711;28;20421;-67
2024/01/06 11:40:24;;;;;;;10.65;6.38;;;;;;;;;;5054001;28;20025;-67
2024/01/06 11:43:00;;;;;;;11.73;6.82;;;;;;;;;;5053932;28;20112;-67
2024/01/06 11:45:26;;;;;;;10.25;5.50;;;;;;;;;;5053777;28;20543;-67
2024/01/06 11:47:56;;;;;;;11.32;5.32;;;;;;;;;;5053801;28;20033;-67
2024/01/06 11:50:23;;;;;;;9.38;4.18;;;;;;;;;;5053343;28;20025;-67
2024/01/06 11:52:50;;;;;;;9.75;5.90;;;;;;;;;;5033581;28;20025;-67
2024/01/06 11:55:18;;;;;;;16.90;6.07;;;;;;;;;;5033538;28;20064;-67
2024/01/06 11:57:43;;;;;;;8.75;4.75;;;;;;;;;;5033592;28;20029;-67
2024/01/06 12:00:09;;;;;;;10.85;5.18;;;;;;;;;;5033763;28;20021;-67
2024/01/06 12:02:35;;;;;;;6.40;3.55;;;;;;;;;;5033428;28;20072;-67
2024/01/06 12:05:00;;;;;;;7.85;4.45;;;;;;;;;;5033377;28;20079;-67
2024/01/06 12:07:26;;;;;;;10.15;4.85;;;;;;;;;;5033619;28;20067;-67
2024/01/06 12:10:01;;;;;;;7.75;4.00;;;;;;;;;;5033567;28;20033;-67
2024/01/06 12:12:27;;;;;;;9.88;5.10;;;;;;;;;;5033432;28;20418;-67
2024/01/06 12:14:52;;;;;;;8.48;4.30;;;;;;;;;;5033407;28;20029;-67
2024/01/06 12:17:21;;;;;;;9.48;3.58;;;;;;;;;;5033358;28;20108;-67
2024/01/06 12:19:47;;;;;;;9.00;4.63;;;;;;;;;;5032993;28;20051;-67
2024/01/06 12:22:14;;;;;;;15.60;6.10;;;;;;;;;;5031970;28;20467;-67
2024/01/06 12:24:41;;;;;;;7.13;4.03;;;;;;;;;;5033414;28;20029;-67
2024/01/06 12:27:09;;;;;;;8.15;4.38;;;;;;;;;;5033153;28;20021;-68
2024/01/06 12:29:38;;;;;;;8.65;4.65;;;;;;;;;;5033279;28;20053;-68
2024/01/06 12:32:05;;;;;;;13.93;6.90;;;;;;;;;;5031729;28;20489;-67
2024/01/06 12:34:30;;;;;;;10.27;5.30;;;;;;;;;;5050569;28;20028;-67
2024/01/06 12:36:56;;;;;;;16.83;8.27;;;;;;;;;;5052982;28;20497;-67
2024/01/06 12:39:23;;;;;;;15.93;6.35;;;;;;;;;;5053113;28;20021;-67
2024/01/06 12:41:50;;;;;;;11.07;5.20;;;;;;;;;;5052905;28;20420;-67
2024/01/06 12:44:16;;;;;;;10.80;6.03;;;;;;;;;;5052133;28;20374;-67
2024/01/06 12:46:41;;;;;;;9.57;4.50;;;;;;;;;;5052680;28;20027;-68
2024/01/06 12:49:07;;;;;;;7.90;5.22;;;;;;;;;;5052577;28;20025;-67
2024/01/06 12:51:32;;;;;;;10.80;5.43;;;;;;;;;;5062146;28;20113;-67
2024/01/06 12:53:57;;;;;;;10.38;5.78;;;;;;;;;;5072754;28;20370;-67
2024/01/06 12:56:23;;;;;;;11.23;4.85;;;;;;;;;;5072398;28;20041;-67
2024/01/06 12:58:48;;;;;;;8.55;4.85;;;;;;;;;;5072704;28;20090;-67
2024/01/06 13:01:14;;;;;;;10.57;4.68;;;;;;;;;;5072697;28;20024;-67
2024/01/06 13:03:39;;;;;;;8.95;4.85;;;;;;;;;;5072555;28;20371;-67
2024/01/06 13:06:05;;;;;;;7.75;4.55;;;;;;;;;;5072720;28;20107;-68
2024/01/06 13:08:30;;;;;;;11.55;5.32;;;;;;;;;;5072817;28;20024;-68
2024/01/06 13:10:56;;;;;;;8.80;4.53;;;;;;;;;;5072451;28;20032;-67
2024/01/06 13:13:22;;;;;;;8.32;5.03;;;;;;;;;;5072733;28;20036;-67
2024/01/06 13:15:47;;;;;;;5.47;3.03;;;;;;;;;;5072476;28;20029;-68
2024/01/06 13:18:13;;;;;;;6.60;3.35;;;;;;;;;;5072132;28;20051;-67
2024/01/06 13:20:41;;;;;;;6.40;3.33;;;;;;;;;;5072525;28;20040;-68
2024/01/06 13:23:07;;;;;;;14.93;6.60;;;;;;;;;;5072504;28;20029;-67
2024/01/06 13:25:33;;;;;;;18.80;8.43;;;;;;;;;;5072348;28;20496;-67
2024/01/06 13:27:59;;;;;;;17.30;7.18;;;;;;;;;;5072313;28;20028;-67
2024/01/06 13:30:25;;;;;;;10.77;4.80;;;;;;;;;;5072331;28;20031;-67
2024/01/06 13:32:53;;;;;;;7.53;4.40;;;;;;;;;;5066349;28;20079;-67
2024/01/06 13:35:19;;;;;;;11.10;4.68;;;;;;;;;;5052398;28;20051;-68
2024/01/06 13:37:48;;;;;;;8.73;3.75;;;;;;;;;;5052307;28;20827;-67
2024/01/06 13:40:13;;;;;;;9.90;5.25;;;;;;;;;;5052375;28;20053;-68
2024/01/06 13:42:39;;;;;;;13.57;6.13;;;;;;;;;;5052230;28;20025;-68
2024/01/06 13:45:05;;;;;;;10.13;4.57;;;;;;;;;;5052088;28;20040;-67
2024/01/06 13:47:31;;;;;;;9.45;4.40;;;;;;;;;;5051734;28;20029;-68
2024/01/06 13:49:57;;;;;;;8.82;4.38;;;;;;;;;;5052026;28;20158;-68
2024/01/06 13:52:22;;;;;;;7.85;4.65;;;;;;;;;;5068641;28;20029;-67
2024/01/06 13:54:48;;;;;;;10.82;5.57;;;;;;;;;;5072371;28;20058;-68
2024/01/06 13:57:13;;;;;;;5.30;3.85;;;;;;;;;;5075865;28;20135;-67
2024/01/06 13:59:42;;;;;;;8.93;4.55;;;;;;;;;;5075961;28;20465;-67
2024/01/06 14:02:08;;;;;;;11.30;5.25;;;;;;;;;;5075524;28;20024;-67
2024/01/06 14:04:34;;;;;;;14.20;7.15;;;;;;;;;;5075830;28;20203;-67
2024/01/06 14:07:01;;;;;;;8.57;4.25;;;;;;;;;;5075901;28;20528;-67
2024/01/06 14:09:27;;;;;;;9.48;4.93;;;;;;;;;;5075615;28;20051;-67
2024/01/06 14:11:54;;;;;;;7.25;3.33;;;;;;;;;;5075504;28;20021;-67
2024/01/06 14:14:20;;;;;;;11.32;5.80;;;;;;;;;;5075735;28;20027;-67
2024/01/06 14:16:46;;;;;;;6.78;3.70;;;;;;;;;;5075363;28;20104;-67
2024/01/06 14:19:12;;;;;;;13.45;6.45;;;;;;;;;;5075550;28;20070;-67
2024/01/06 14:21:38;;;;;;;16.83;5.30;;;;;;;;;;5075265;28;20020;-68
2024/01/06 14:24:05;;;;;;;9.43;5.50;;;;;;;;;;5075435;28;20021;-68